createdAt,value
2017-07-30T00:01:30.140Z,6.10
2017-07-30T00:03:57.014Z,5.43
2017-07-30T00:06:23.878Z,5.43
2017-07-30T00:08:50.828Z,5.97
2017-07-30T00:11:17.820Z,5.07
2017-07-30T00:13:45.449Z,5.87
2017-07-30T00:16:12.391Z,5.43
2017-07-30T00:18:39.259Z,4.83
2017-07-30T00:21:06.201Z,5.77
2017-07-30T00:23:33.151Z,5.50
2017-07-30T00:26:00.131Z,6.07
2017-07-30T00:28:27.003Z,5.73
2017-07-30T00:30:53.877Z,5.40
2017-07-30T00:33:20.827Z,6.33
2017-07-30T00:35:47.712Z,6.37
2017-07-30T00:38:15.332Z,5.17
2017-07-30T00:40:42.255Z,5.07
2017-07-30T00:43:09.248Z,6.00
2017-07-30T00:45:36.196Z,5.30
2017-07-30T00:48:03.960Z,5.70
2017-07-30T00:50:31.583Z,5.37
2017-07-30T00:52:58.518Z,5.07
2017-07-30T00:55:25.374Z,5.93
2017-07-30T00:57:52.320Z,5.67
2017-07-30T01:00:19.476Z,5.30
2017-07-30T01:02:46.428Z,5.57
2017-07-30T01:05:13.296Z,5.93
2017-07-30T01:07:40.171Z,6.93
2017-07-30T01:10:07.127Z,6.00
2017-07-30T01:12:37.214Z,6.40
2017-07-30T01:15:04.327Z,6.07
2017-07-30T01:17:31.200Z,5.30
2017-07-30T01:19:58.162Z,5.30
2017-07-30T01:22:25.910Z,5.87
2017-07-30T01:24:52.823Z,5.30
2017-07-30T01:27:19.841Z,5.27
2017-07-30T01:29:46.697Z,5.33
2017-07-30T01:32:14.562Z,5.70
2017-07-30T01:34:41.463Z,4.97
2017-07-30T01:37:08.409Z,5.57
2017-07-30T01:39:35.274Z,5.77
2017-07-30T01:42:02.897Z,5.20
2017-07-30T01:44:29.843Z,5.03
2017-07-30T01:46:56.731Z,6.50
2017-07-30T01:49:24.416Z,5.50
2017-07-30T01:51:51.391Z,5.73
2017-07-30T01:54:18.318Z,6.33
2017-07-30T01:56:45.259Z,5.40
2017-07-30T01:59:12.245Z,6.07
2017-07-30T02:01:39.158Z,5.20
2017-07-30T02:04:06.046Z,5.70
2017-07-30T02:06:33.001Z,5.17
2017-07-30T02:09:00.623Z,5.60
2017-07-30T02:11:27.567Z,5.43
2017-07-30T02:13:54.499Z,5.87
2017-07-30T02:16:21.352Z,5.50
2017-07-30T02:18:48.216Z,5.90
2017-07-30T02:21:15.220Z,5.50
2017-07-30T02:23:42.164Z,6.20
2017-07-30T02:26:09.033Z,5.03
2017-07-30T02:28:36.019Z,6.13
2017-07-30T02:31:02.880Z,6.03
2017-07-30T02:33:30.573Z,6.30
2017-07-30T02:35:57.436Z,5.77
2017-07-30T02:38:24.291Z,4.90
2017-07-30T02:40:51.279Z,5.07
2017-07-30T02:43:18.954Z,7.80
2017-07-30T02:45:45.852Z,6.53
2017-07-30T02:48:12.770Z,6.60
2017-07-30T02:50:39.643Z,6.17
2017-07-30T02:53:06.567Z,5.37
2017-07-30T02:55:33.540Z,5.77
2017-07-30T02:58:00.388Z,5.00
2017-07-30T03:00:27.759Z,5.83
2017-07-30T03:02:54.699Z,5.73
2017-07-30T03:05:21.564Z,5.90
2017-07-30T03:07:48.429Z,5.60
2017-07-30T03:10:15.380Z,6.20
2017-07-30T03:12:42.259Z,5.50
2017-07-30T03:15:09.154Z,5.90
2017-07-30T03:17:36.103Z,5.93
2017-07-30T03:20:03.024Z,6.20
2017-07-30T03:22:29.884Z,5.53
2017-07-30T03:24:57.612Z,6.67
2017-07-30T03:27:24.492Z,5.90
2017-07-30T03:29:52.169Z,6.27
2017-07-30T03:32:19.155Z,5.53
2017-07-30T03:34:46.008Z,6.33
2017-07-30T03:37:12.951Z,5.63
2017-07-30T03:39:39.816Z,7.40
2017-07-30T03:42:06.696Z,6.03
2017-07-30T03:44:33.652Z,6.50
2017-07-30T03:47:00.523Z,5.87
2017-07-30T03:49:27.386Z,6.30
2017-07-30T03:51:54.319Z,6.57
2017-07-30T03:54:21.251Z,6.00
2017-07-30T03:56:48.128Z,5.53
2017-07-30T03:59:15.005Z,6.03
2017-07-30T04:01:42.678Z,5.57
2017-07-30T04:04:09.616Z,6.07
2017-07-30T04:06:36.497Z,6.37
2017-07-30T04:09:03.523Z,6.40
2017-07-30T04:11:30.405Z,6.30
2017-07-30T04:13:57.246Z,5.97
2017-07-30T04:16:24.200Z,5.40
2017-07-30T04:18:51.080Z,6.40
2017-07-30T04:21:18.688Z,7.13
2017-07-30T04:23:45.946Z,5.60
2017-07-30T04:26:17.774Z,6.03
2017-07-30T04:28:44.862Z,5.50
2017-07-30T04:31:11.736Z,5.10
2017-07-30T04:33:39.351Z,6.20
2017-07-30T04:36:06.307Z,6.80
2017-07-30T04:38:33.175Z,6.03
2017-07-30T04:41:00.039Z,6.30
2017-07-30T04:43:27.729Z,6.10
2017-07-30T04:45:54.614Z,6.03
2017-07-30T04:48:21.469Z,6.10
2017-07-30T04:50:48.455Z,6.10
2017-07-30T04:53:15.404Z,5.37
2017-07-30T04:55:42.253Z,5.60
2017-07-30T04:58:09.199Z,6.47
2017-07-30T05:00:36.068Z,5.20
2017-07-30T05:03:03.024Z,5.43
2017-07-30T05:05:29.975Z,5.80
2017-07-30T05:07:56.851Z,5.80
2017-07-30T05:10:24.529Z,5.40
2017-07-30T05:12:51.406Z,4.97
2017-07-30T05:15:18.353Z,5.63
2017-07-30T05:17:45.235Z,5.60
2017-07-30T05:20:12.111Z,4.93
2017-07-30T05:22:39.800Z,5.33
2017-07-30T05:25:06.817Z,6.40
2017-07-30T05:27:33.691Z,5.93
2017-07-30T05:30:00.547Z,5.97
2017-07-30T05:32:27.540Z,5.70
2017-07-30T05:34:54.394Z,5.57
2017-07-30T05:37:22.075Z,6.00
2017-07-30T05:39:49.000Z,5.43
2017-07-30T05:42:16.623Z,5.37
2017-07-30T05:44:43.558Z,5.33
2017-07-30T05:47:10.532Z,5.57
2017-07-30T05:49:37.490Z,5.20
2017-07-30T05:52:04.336Z,5.60
2017-07-30T05:54:31.214Z,5.47
2017-07-30T05:56:58.157Z,5.00
2017-07-30T05:59:25.027Z,4.53
2017-07-30T06:01:51.882Z,5.27
2017-07-30T06:04:18.826Z,5.33
2017-07-30T06:06:45.788Z,5.00
2017-07-30T06:09:12.684Z,4.70
2017-07-30T06:11:39.611Z,4.47
2017-07-30T06:14:07.309Z,5.20
2017-07-30T06:16:34.204Z,4.97
2017-07-30T06:19:01.184Z,4.10
2017-07-30T06:21:28.107Z,4.70
2017-07-30T06:23:55.772Z,4.67
2017-07-30T06:26:23.500Z,5.40
2017-07-30T06:28:50.361Z,5.73
2017-07-30T06:31:17.235Z,4.70
2017-07-30T06:33:44.943Z,5.50
2017-07-30T06:36:11.820Z,5.40
2017-07-30T06:38:38.687Z,4.97
2017-07-30T06:41:05.667Z,4.80
2017-07-30T06:43:32.599Z,4.90
2017-07-30T06:45:59.482Z,4.80
2017-07-30T06:48:26.433Z,5.90
2017-07-30T06:50:53.304Z,5.20
2017-07-30T06:53:20.181Z,4.90
2017-07-30T06:55:47.146Z,4.90
2017-07-30T06:58:14.040Z,4.60
2017-07-30T07:00:40.907Z,5.43
2017-07-30T07:03:08.625Z,6.17
2017-07-30T07:05:35.496Z,5.73
2017-07-30T07:08:02.408Z,5.13
2017-07-30T07:10:29.312Z,6.13
2017-07-30T07:12:56.212Z,5.20
2017-07-30T07:15:23.173Z,5.73
2017-07-30T07:17:50.065Z,5.73
2017-07-30T07:20:16.964Z,5.63
2017-07-30T07:22:43.889Z,5.23
2017-07-30T07:25:10.959Z,4.70
2017-07-30T07:27:37.911Z,5.17
2017-07-30T07:30:05.979Z,5.30
2017-07-30T07:32:34.010Z,4.97
2017-07-30T07:35:01.028Z,5.10
2017-07-30T07:37:27.941Z,5.80
2017-07-30T07:39:58.451Z,5.10
2017-07-30T07:42:29.874Z,4.50
2017-07-30T07:44:57.133Z,4.80
2017-07-30T07:47:24.975Z,4.93
2017-07-30T07:49:51.943Z,4.90
2017-07-30T07:52:18.849Z,4.53
2017-07-30T07:54:46.919Z,5.13
2017-07-30T07:57:17.947Z,5.20
2017-07-30T07:59:47.869Z,4.57
2017-07-30T08:02:14.857Z,4.37
2017-07-30T08:04:41.719Z,5.03
2017-07-30T08:07:11.417Z,4.43
2017-07-30T08:09:41.098Z,5.03
2017-07-30T08:12:16.479Z,5.07
2017-07-30T08:14:44.286Z,4.47
2017-07-30T08:17:12.139Z,4.23
2017-07-30T08:19:40.314Z,4.50
2017-07-30T08:22:07.269Z,4.80
2017-07-30T08:24:36.357Z,4.50
2017-07-30T08:27:06.203Z,4.17
2017-07-30T08:29:38.560Z,3.83
2017-07-30T08:32:08.058Z,3.80
2017-07-30T08:34:39.553Z,4.63
2017-07-30T08:37:09.924Z,3.87
2017-07-30T08:39:37.452Z,3.90
2017-07-30T08:42:06.514Z,3.87
2017-07-30T08:44:34.785Z,3.40
2017-07-30T08:47:10.183Z,3.73
2017-07-30T08:49:39.874Z,3.77
2017-07-30T08:52:09.780Z,3.90
2017-07-30T08:54:36.846Z,3.50
2017-07-30T08:57:03.717Z,3.10
2017-07-30T08:59:30.672Z,3.23
2017-07-30T09:01:57.552Z,3.77
2017-07-30T09:04:25.311Z,3.70
2017-07-30T09:06:52.184Z,4.10
2017-07-30T09:09:19.156Z,3.80
2017-07-30T09:11:46.044Z,3.47
2017-07-30T09:14:12.955Z,3.97
2017-07-30T09:16:40.373Z,4.40
2017-07-30T09:19:18.280Z,3.83
2017-07-30T09:21:46.085Z,4.43
2017-07-30T09:24:13.213Z,4.80
2017-07-30T09:26:40.307Z,4.67
2017-07-30T09:29:07.312Z,4.67
2017-07-30T09:31:34.217Z,3.90
2017-07-30T09:34:01.175Z,3.90
2017-07-30T09:36:28.194Z,4.17
2017-07-30T09:38:55.264Z,3.10
2017-07-30T09:41:22.757Z,2.67
2017-07-30T09:43:50.274Z,2.30
2017-07-30T09:46:17.976Z,2.50
2017-07-30T09:48:45.903Z,2.30
2017-07-30T09:51:13.077Z,2.23
2017-07-30T09:53:40.421Z,2.30
2017-07-30T09:56:10.180Z,2.20
2017-07-30T09:58:41.288Z,4.90
2017-07-30T10:01:10.241Z,2.70
2017-07-30T10:03:41.438Z,2.50
2017-07-30T10:06:08.566Z,2.60
2017-07-30T10:08:35.612Z,2.93
2017-07-30T10:11:03.452Z,2.33
2017-07-30T10:13:30.574Z,2.00
2017-07-30T10:15:57.658Z,2.50
2017-07-30T10:18:24.564Z,2.00
2017-07-30T10:20:51.505Z,2.00
2017-07-30T10:23:18.442Z,2.40
2017-07-30T10:25:45.328Z,2.10
2017-07-30T10:28:12.341Z,2.90
2017-07-30T10:30:40.615Z,2.17
2017-07-30T10:33:07.647Z,2.30
2017-07-30T10:38:28.091Z,2.40
2017-07-30T10:40:55.955Z,2.20
2017-07-30T10:43:29.412Z,2.10
2017-07-30T10:45:56.312Z,2.83
2017-07-30T10:48:36.958Z,2.53
2017-07-30T10:51:15.244Z,2.33
2017-07-30T10:53:44.870Z,2.37
2017-07-30T10:56:16.771Z,1.97
2017-07-30T10:58:47.636Z,2.20
2017-07-30T11:01:20.307Z,2.17
2017-07-30T11:04:00.946Z,2.40
2017-07-30T11:06:39.485Z,2.07
2017-07-30T11:09:19.031Z,2.33
2017-07-30T11:11:46.920Z,1.80
2017-07-30T11:14:21.433Z,1.80
2017-07-30T11:16:56.733Z,2.20
2017-07-30T11:19:24.873Z,1.70
2017-07-30T11:21:52.539Z,1.87
2017-07-30T11:24:30.071Z,1.60
2017-07-30T11:27:08.194Z,1.63
2017-07-30T11:29:35.644Z,2.20
2017-07-30T11:32:08.942Z,1.80
2017-07-30T11:34:35.924Z,2.27
2017-07-30T11:37:02.943Z,2.30
2017-07-30T11:39:29.924Z,1.90
2017-07-30T11:42:02.460Z,1.60
2017-07-30T11:44:36.709Z,2.07
2017-07-30T11:47:23.202Z,2.20
2017-07-30T11:49:51.908Z,1.90
2017-07-30T11:52:19.639Z,1.87
2017-07-30T11:54:47.305Z,2.03
2017-07-30T11:57:23.002Z,2.27
2017-07-30T11:59:50.680Z,2.17
2017-07-30T12:02:18.234Z,2.00
2017-07-30T12:04:45.663Z,2.00
2017-07-30T12:07:12.636Z,2.00
2017-07-30T12:09:40.333Z,2.13
2017-07-30T12:12:07.233Z,2.27
2017-07-30T12:14:34.939Z,1.77
2017-07-30T12:17:01.809Z,1.87
2017-07-30T12:19:28.751Z,1.80
2017-07-30T12:21:55.664Z,1.90
2017-07-30T12:24:22.656Z,2.37
2017-07-30T12:26:52.030Z,2.07
2017-07-30T12:29:18.984Z,1.83
2017-07-30T12:31:45.864Z,2.00
2017-07-30T12:34:12.743Z,2.20
2017-07-30T12:36:39.706Z,1.90
2017-07-30T12:39:06.601Z,1.77
2017-07-30T12:41:33.548Z,3.07
2017-07-30T12:44:00.516Z,3.17
2017-07-30T12:46:27.404Z,2.30
2017-07-30T12:48:54.404Z,2.63
2017-07-30T12:51:22.040Z,2.17
2017-07-30T12:53:48.929Z,2.20
2017-07-30T12:56:15.881Z,1.93
2017-07-30T12:58:42.780Z,2.40
2017-07-30T13:01:09.704Z,1.80
2017-07-30T13:03:36.639Z,1.93
2017-07-30T13:06:03.590Z,1.80
2017-07-30T13:08:30.493Z,2.10
2017-07-30T13:10:57.384Z,1.83
2017-07-30T13:13:24.341Z,1.80
2017-07-30T13:15:51.231Z,1.77
2017-07-30T13:18:18.204Z,1.73
2017-07-30T13:20:45.092Z,2.20
2017-07-30T13:23:11.981Z,1.57
2017-07-30T13:25:38.907Z,1.93
2017-07-30T13:28:05.847Z,1.63
2017-07-30T13:30:33.836Z,1.87
2017-07-30T13:33:00.737Z,1.93
2017-07-30T13:35:27.602Z,2.00
2017-07-30T13:37:54.540Z,1.83
2017-07-30T13:40:22.174Z,2.13
2017-07-30T13:42:49.122Z,1.93
2017-07-30T13:45:16.001Z,2.13
2017-07-30T13:47:43.621Z,1.83
2017-07-30T13:50:10.698Z,1.80
2017-07-30T13:52:37.587Z,2.70
2017-07-30T13:55:04.534Z,1.87
2017-07-30T13:57:31.443Z,2.10
2017-07-30T13:59:59.144Z,2.00
2017-07-30T14:02:26.013Z,2.73
2017-07-30T14:04:53.236Z,1.90
2017-07-30T14:07:20.116Z,1.90
2017-07-30T14:09:46.991Z,2.30
2017-07-30T14:12:13.957Z,2.70
2017-07-30T14:14:40.854Z,1.97
2017-07-30T14:17:07.726Z,1.93
2017-07-30T14:19:34.683Z,2.10
2017-07-30T14:22:02.301Z,2.57
2017-07-30T14:24:29.179Z,1.70
2017-07-30T14:26:56.228Z,2.57
2017-07-30T14:29:23.167Z,2.30
2017-07-30T14:31:50.129Z,2.07
2017-07-30T14:34:17.751Z,2.20
2017-07-30T14:36:44.696Z,1.83
2017-07-30T14:39:11.706Z,2.63
2017-07-30T14:41:38.649Z,1.80
2017-07-30T14:44:05.600Z,2.17
2017-07-30T14:46:32.555Z,2.43
2017-07-30T14:48:59.443Z,2.10
2017-07-30T14:51:26.308Z,2.17
2017-07-30T14:53:53.270Z,2.70
2017-07-30T14:56:20.866Z,2.90
2017-07-30T14:58:47.812Z,2.73
2017-07-30T15:01:14.699Z,2.10
2017-07-30T15:03:41.572Z,2.60
2017-07-30T15:06:08.559Z,2.10
2017-07-30T15:08:35.568Z,2.23
2017-07-30T15:11:02.444Z,2.40
2017-07-30T15:13:29.410Z,1.90
2017-07-30T15:15:56.360Z,2.27
2017-07-30T15:18:23.335Z,2.97
2017-07-30T15:20:50.221Z,2.40
2017-07-30T15:23:17.247Z,2.27
2017-07-30T15:25:44.139Z,2.33
2017-07-30T15:28:11.036Z,2.47
2017-07-30T15:30:38.787Z,2.40
2017-07-30T15:33:06.457Z,2.47
2017-07-30T15:35:33.478Z,2.07
2017-07-30T15:38:00.483Z,2.20
2017-07-30T15:40:27.470Z,1.93
2017-07-30T15:42:54.459Z,2.37
2017-07-30T15:45:21.351Z,1.93
2017-07-30T15:47:48.239Z,2.60
2017-07-30T15:50:15.928Z,2.00
2017-07-30T15:52:42.816Z,2.10
2017-07-30T15:55:09.776Z,2.10
2017-07-30T15:57:36.668Z,2.17
2017-07-30T16:00:03.650Z,2.23
2017-07-30T16:02:30.614Z,2.33
2017-07-30T16:04:58.275Z,2.07
2017-07-30T16:07:25.466Z,2.27
2017-07-30T16:09:52.376Z,2.33
2017-07-30T16:12:19.276Z,2.80
2017-07-30T16:14:46.255Z,2.40
2017-07-30T16:17:13.215Z,2.20
2017-07-30T16:19:40.140Z,2.70
2017-07-30T16:22:07.872Z,2.20
2017-07-30T16:24:34.786Z,2.10
2017-07-30T16:27:02.444Z,3.73
2017-07-30T16:29:30.142Z,3.00
2017-07-30T16:31:57.080Z,2.70
2017-07-30T16:34:24.148Z,2.60
2017-07-30T16:36:51.060Z,2.33
2017-07-30T16:39:18.711Z,2.13
2017-07-30T16:41:46.430Z,3.17
2017-07-30T16:44:13.359Z,2.90
2017-07-30T16:46:40.377Z,2.60
2017-07-30T16:49:07.260Z,3.13
2017-07-30T16:51:34.139Z,2.70
2017-07-30T16:54:01.113Z,2.63
2017-07-30T16:56:28.759Z,2.67
2017-07-30T16:58:55.682Z,2.70
2017-07-30T17:01:22.720Z,2.90
2017-07-30T17:03:49.675Z,2.63
2017-07-30T17:06:16.583Z,2.80
2017-07-30T17:08:43.599Z,3.47
2017-07-30T17:11:11.355Z,3.17
2017-07-30T17:13:39.054Z,2.40
2017-07-30T17:16:06.073Z,2.83
2017-07-30T17:18:33.725Z,2.90
2017-07-30T17:21:00.699Z,3.03
2017-07-30T17:23:28.402Z,2.23
2017-07-30T17:25:55.355Z,2.50
2017-07-30T17:28:22.342Z,2.97
2017-07-30T17:30:50.080Z,2.70
2017-07-30T17:33:17.000Z,2.40
2017-07-30T17:35:44.001Z,2.73
2017-07-30T17:38:11.736Z,3.00
2017-07-30T17:40:38.659Z,2.53
2017-07-30T17:43:05.733Z,2.87
2017-07-30T17:45:32.726Z,3.23
2017-07-30T17:47:59.620Z,2.80
2017-07-30T17:50:26.616Z,2.93
2017-07-30T17:52:53.512Z,2.80
2017-07-30T17:55:20.534Z,2.57
2017-07-30T17:57:47.436Z,3.60
2017-07-30T18:00:15.047Z,2.87
2017-07-30T18:02:42.019Z,2.80
2017-07-30T18:05:09.012Z,2.40
2017-07-30T18:07:35.985Z,2.53
2017-07-30T18:10:02.890Z,3.40
2017-07-30T18:12:29.901Z,3.13
2017-07-30T18:14:56.758Z,2.80
2017-07-30T18:17:23.680Z,2.87
2017-07-30T18:19:50.567Z,2.90
2017-07-30T18:22:18.313Z,3.33
2017-07-30T18:24:45.220Z,3.03
2017-07-30T18:27:12.080Z,3.00
2017-07-30T18:29:39.041Z,2.37
2017-07-30T18:32:06.001Z,3.13
2017-07-30T18:34:32.963Z,2.40
2017-07-30T18:37:00.556Z,3.07
2017-07-30T18:39:27.489Z,2.63
2017-07-30T18:41:54.432Z,7.17
2017-07-30T18:44:21.316Z,17.00
2017-07-30T18:46:48.227Z,13.63
2017-07-30T18:49:16.087Z,4.00
2017-07-30T18:51:42.958Z,4.20
2017-07-30T18:54:09.917Z,2.97
2017-07-30T18:56:36.940Z,2.70
2017-07-30T18:59:03.886Z,3.90
2017-07-30T19:01:30.832Z,15.60
2017-07-30T19:03:57.711Z,7.30
2017-07-30T19:06:24.674Z,4.70
2017-07-30T19:08:51.570Z,3.17
2017-07-30T19:11:18.448Z,5.00
2017-07-30T19:13:45.584Z,3.17
2017-07-30T19:16:12.524Z,4.60
2017-07-30T19:18:39.382Z,3.70
2017-07-30T19:21:06.327Z,4.53
2017-07-30T19:23:33.238Z,5.03
2017-07-30T19:26:00.191Z,3.43
2017-07-30T19:28:27.148Z,3.00
2017-07-30T19:30:54.170Z,3.40
2017-07-30T19:33:21.858Z,2.80
2017-07-30T19:35:48.760Z,4.00
2017-07-30T19:38:15.676Z,3.57
2017-07-30T19:40:42.700Z,5.70
2017-07-30T19:43:09.597Z,7.10
2017-07-30T19:45:36.484Z,9.10
2017-07-30T19:48:03.444Z,6.67
2017-07-30T19:50:30.375Z,4.70
2017-07-30T19:52:57.259Z,3.23
2017-07-30T19:55:24.222Z,2.70
2017-07-30T19:57:51.168Z,2.73
2017-07-30T20:00:18.043Z,3.33
2017-07-30T20:02:44.923Z,2.77
2017-07-30T20:05:11.869Z,2.70
2017-07-30T20:07:38.780Z,3.10
2017-07-30T20:10:05.782Z,3.37
2017-07-30T20:12:32.690Z,3.57
2017-07-30T20:14:59.623Z,2.80
2017-07-30T20:17:26.557Z,3.20
2017-07-30T20:19:54.284Z,3.40
2017-07-30T20:22:21.247Z,3.00
2017-07-30T20:24:48.149Z,3.70
2017-07-30T20:27:15.163Z,2.97
2017-07-30T20:29:42.783Z,2.90
2017-07-30T20:32:09.823Z,3.77
2017-07-30T20:34:36.717Z,3.67
2017-07-30T20:37:04.352Z,2.90
2017-07-30T20:39:31.297Z,4.10
2017-07-30T20:41:58.178Z,2.93
2017-07-30T20:44:25.046Z,4.27
2017-07-30T20:46:51.985Z,3.43
2017-07-30T20:49:18.886Z,3.60
2017-07-30T20:51:45.873Z,3.57
2017-07-30T20:54:12.812Z,3.37
2017-07-30T20:56:39.683Z,3.47
2017-07-30T20:59:06.604Z,3.83
2017-07-30T21:01:33.488Z,4.33
2017-07-30T21:04:00.403Z,3.30
2017-07-30T21:06:27.402Z,3.03
2017-07-30T21:08:54.287Z,2.97
2017-07-30T21:11:21.159Z,3.50
2017-07-30T21:13:48.103Z,2.83
2017-07-30T21:16:15.069Z,3.70
2017-07-30T21:18:41.978Z,3.63
2017-07-30T21:21:08.881Z,3.67
2017-07-30T21:23:35.833Z,3.20
2017-07-30T21:26:02.793Z,3.60
2017-07-30T21:28:30.472Z,3.60
2017-07-30T21:30:57.504Z,3.67
2017-07-30T21:33:25.111Z,4.23
2017-07-30T21:35:51.977Z,3.33
2017-07-30T21:38:18.919Z,4.20
2017-07-30T21:40:45.848Z,3.57
2017-07-30T21:43:12.731Z,4.13
2017-07-30T21:45:40.431Z,4.00
2017-07-30T21:48:07.316Z,3.67
2017-07-30T21:50:34.247Z,3.20
2017-07-30T21:53:01.108Z,2.93
2017-07-30T21:55:27.962Z,5.00
2017-07-30T21:57:54.915Z,3.77
2017-07-30T22:00:21.772Z,3.40
2017-07-30T22:02:49.396Z,3.80
2017-07-30T22:05:16.315Z,3.90
2017-07-30T22:07:43.217Z,10.03
2017-07-30T22:10:10.164Z,5.97
2017-07-30T22:12:37.112Z,3.77
2017-07-30T22:15:04.803Z,3.20
2017-07-30T22:17:31.671Z,3.07
2017-07-30T22:19:58.522Z,3.30
2017-07-30T22:22:25.460Z,3.40
2017-07-30T22:24:52.394Z,3.53
2017-07-30T22:27:19.343Z,3.13
2017-07-30T22:29:46.281Z,3.67
2017-07-30T22:32:13.297Z,4.20
2017-07-30T22:34:40.234Z,4.00
2017-07-30T22:37:07.087Z,3.60
2017-07-30T22:39:33.971Z,3.87
2017-07-30T22:42:00.906Z,3.37
2017-07-30T22:44:27.769Z,2.97
2017-07-30T22:46:54.704Z,3.10
2017-07-30T22:49:21.647Z,3.43
2017-07-30T22:51:48.612Z,3.70
2017-07-30T22:54:15.499Z,3.10
2017-07-30T22:56:42.377Z,3.53
2017-07-30T22:59:09.394Z,3.00
2017-07-30T23:01:36.271Z,3.03
2017-07-30T23:04:03.864Z,3.43
2017-07-30T23:06:30.802Z,3.73
2017-07-30T23:08:57.710Z,3.80
2017-07-30T23:11:25.479Z,3.20
2017-07-30T23:13:53.101Z,3.47
2017-07-30T23:16:20.043Z,3.20
2017-07-30T23:18:46.916Z,3.60
2017-07-30T23:21:14.608Z,3.30
2017-07-30T23:23:41.482Z,3.13
2017-07-30T23:26:08.410Z,3.60
2017-07-30T23:28:35.266Z,3.70
2017-07-30T23:31:02.188Z,3.70
2017-07-30T23:33:29.193Z,3.73
2017-07-30T23:35:56.141Z,4.20
2017-07-30T23:38:23.021Z,3.97
2017-07-30T23:40:49.899Z,3.73
2017-07-30T23:43:16.853Z,3.20
2017-07-30T23:45:43.727Z,3.10
2017-07-30T23:48:10.593Z,3.57
2017-07-30T23:50:38.607Z,3.97
2017-07-30T23:53:05.483Z,4.30
2017-07-30T23:55:32.364Z,3.50
2017-07-30T23:57:59.299Z,3.90
